Time;durP1;ratioP1;P1;durP2;ratioP2;P2;SDS_P1;SDS_P2;PMS_P1;PMS_P2;Temp;Humidity;BMP_temperature;BMP_pressure;BME280_temperature;BME280_humidity;BME280_pressure;Samples;Min_cycle;Max_cycle;Signal;HPM_P1;HPM_P2
2022/07/27 00:01:30;;;;;;;4.30;1.10;;;16.60;99.90;;;;;;4995131;28;20292;-74
2022/07/27 00:03:55;;;;;;;1.93;1.10;;;16.60;99.90;;;;;;5013817;28;20195;-74
2022/07/27 00:06:21;;;;;;;1.80;1.57;;;16.60;99.90;;;;;;5013866;28;20175;-73
2022/07/27 00:08:47;;;;;;;1.97;1.33;;;16.60;99.90;;;;;;5013913;28;20222;-73
2022/07/27 00:11:13;;;;;;;4.87;2.33;;;16.60;99.90;;;;;;5014093;28;20209;-74
2022/07/27 00:13:39;;;;;;;0.80;0.80;;;16.60;99.90;;;;;;5012703;28;20209;-74
2022/07/27 00:16:05;;;;;;;3.23;1.10;;;16.60;99.90;;;;;;5013744;28;20408;-75
2022/07/27 00:18:31;;;;;;;2.30;1.13;;;16.60;99.90;;;;;;5013802;28;20414;-75
2022/07/27 00:20:57;;;;;;;1.20;1.00;;;16.50;99.90;;;;;;5013625;28;20432;-73
2022/07/27 00:23:22;;;;;;;3.37;1.40;;;16.50;99.90;;;;;;5013802;28;20907;-73
2022/07/27 00:25:48;;;;;;;5.30;1.03;;;16.40;99.90;;;;;;5012431;28;20200;-73
2022/07/27 00:28:13;;;;;;;2.27;1.20;;;16.40;99.90;;;;;;5013584;28;20486;-73
2022/07/27 00:30:39;;;;;;;4.27;1.23;;;16.40;99.90;;;;;;5013673;28;20590;-74
2022/07/27 00:33:05;;;;;;;1.77;1.10;;;16.40;99.90;;;;;;5013367;28;20197;-74
2022/07/27 00:35:31;;;;;;;5.17;1.10;;;16.40;99.90;;;;;;5013238;28;20179;-73
2022/07/27 00:37:57;;;;;;;3.23;1.33;;;16.30;99.90;;;;;;5031177;28;20424;-73
2022/07/27 00:40:23;;;;;;;1.27;0.70;;;16.20;99.90;;;;;;5033347;28;20164;-74
2022/07/27 00:42:48;;;;;;;2.90;1.83;;;16.10;99.90;;;;;;5033335;28;20461;-74
2022/07/27 00:45:14;;;;;;;0.83;0.60;;;16.00;99.90;;;;;;5016459;28;20185;-75
2022/07/27 00:47:39;;;;;;;1.90;1.13;;;15.90;99.90;;;;;;5013306;28;20212;-75
2022/07/27 00:50:05;;;;;;;4.23;1.03;;;15.90;99.90;;;;;;5011793;28;20271;-73
2022/07/27 00:52:31;;;;;;;1.90;1.50;;;15.80;99.90;;;;;;5012909;28;20196;-73
2022/07/27 00:54:58;;;;;;;1.33;0.80;;;15.70;99.90;;;;;;5012712;28;20823;-75
2022/07/27 00:57:25;;;;;;;1.90;1.00;;;15.60;99.90;;;;;;5013045;28;20299;-74
2022/07/27 00:59:50;;;;;;;1.53;1.00;;;15.50;99.90;;;;;;5013206;28;20415;-75
2022/07/27 01:02:16;;;;;;;6.57;1.33;;;15.50;99.90;;;;;;5012710;28;20799;-72
2022/07/27 01:04:42;;;;;;;2.13;1.30;;;15.40;99.90;;;;;;5012878;28;20169;-74
2022/07/27 01:07:07;;;;;;;2.10;1.17;;;15.30;99.90;;;;;;5013767;28;20866;-74
2022/07/27 01:12:20;;;;;;;1.43;1.00;;;15.20;99.90;;;;;;5044426;23;20229;-65
2022/07/27 01:14:47;;;;;;;3.13;1.20;;;15.20;99.90;;;;;;5032730;28;20735;-63
2022/07/27 01:17:12;;;;;;;1.47;0.90;;;15.10;99.90;;;;;;5031457;28;20398;-63
2022/07/27 01:19:38;;;;;;;1.83;0.90;;;15.00;99.90;;;;;;5013708;28;20410;-65
2022/07/27 01:22:07;;;;;;;2.30;1.30;;;15.00;99.90;;;;;;5038523;28;20190;-65
2022/07/27 01:24:33;;;;;;;1.13;1.03;;;14.90;99.90;;;;;;5051176;28;20178;-64
2022/07/27 01:27:03;;;;;;;7.23;2.90;;;14.90;99.90;;;;;;5051186;28;20452;-64
2022/07/27 01:29:29;;;;;;;2.27;1.10;;;15.00;99.90;;;;;;5051297;28;20413;-63
2022/07/27 01:31:55;;;;;;;1.80;1.60;;;14.90;99.90;;;;;;5051485;28;20421;-63
2022/07/27 01:34:21;;;;;;;0.80;0.80;;;14.90;99.90;;;;;;5051116;28;20449;-64
2022/07/27 01:36:47;;;;;;;2.90;1.20;;;14.80;99.90;;;;;;5050715;28;20178;-63
2022/07/27 01:39:13;;;;;;;2.93;1.37;;;14.80;99.90;;;;;;5050523;28;20277;-63
2022/07/27 01:41:39;;;;;;;1.53;1.00;;;14.80;99.90;;;;;;5051276;28;20425;-64
2022/07/27 01:44:04;;;;;;;2.30;1.07;;;14.80;99.90;;;;;;5050745;28;20414;-64
2022/07/27 01:46:30;;;;;;;1.33;1.20;;;14.70;99.90;;;;;;5020257;28;20176;-64
2022/07/27 01:48:55;;;;;;;1.23;1.00;;;14.60;99.90;;;;;;5031051;28;20176;-64
2022/07/27 01:51:21;;;;;;;3.90;0.93;;;14.60;99.90;;;;;;5041130;28;20171;-64
2022/07/27 01:53:47;;;;;;;1.10;1.00;;;14.50;99.90;;;;;;5050716;28;20197;-64
2022/07/27 01:56:13;;;;;;;0.90;0.90;;;14.40;99.90;;;;;;5050624;28;20171;-64
2022/07/27 01:58:39;;;;;;;1.50;0.97;;;14.50;99.90;;;;;;5051039;28;20171;-65
2022/07/27 02:01:06;;;;;;;6.50;1.30;;;14.40;99.90;;;;;;5050753;28;20955;-64
2022/07/27 02:03:32;;;;;;;1.17;1.07;;;14.40;99.90;;;;;;5050698;28;20521;-64
2022/07/27 02:05:58;;;;;;;4.10;1.57;;;14.30;99.90;;;;;;5050443;28;20893;-64
2022/07/27 02:08:24;;;;;;;2.27;0.97;;;14.20;99.90;;;;;;5050634;28;20489;-64
2022/07/27 02:13:34;;;;;;;2.03;1.10;;;14.20;99.90;;;;;;5050754;28;21066;-64
2022/07/27 02:16:00;;;;;;;2.40;1.50;;;14.10;99.90;;;;;;5050542;28;20433;-64
2022/07/27 02:18:26;;;;;;;4.83;1.30;;;14.10;99.90;;;;;;5050733;28;20165;-64
2022/07/27 02:20:52;;;;;;;3.37;1.07;;;14.10;99.90;;;;;;5050730;28;20171;-64
2022/07/27 02:23:18;;;;;;;7.93;1.20;;;14.00;99.90;;;;;;5050612;28;20440;-65
2022/07/27 02:25:43;;;;;;;2.90;0.80;;;14.00;99.90;;;;;;5015913;28;20452;-64
2022/07/27 02:28:09;;;;;;;3.90;1.20;;;13.90;99.90;;;;;;5050786;28;20233;-64
2022/07/27 02:30:35;;;;;;;4.30;1.60;;;13.90;99.90;;;;;;5050753;28;20198;-64
2022/07/27 02:33:01;;;;;;;1.00;0.83;;;13.90;99.90;;;;;;5050305;28;20198;-64
2022/07/27 02:35:26;;;;;;;1.53;1.13;;;13.90;99.90;;;;;;5050338;28;20695;-64
2022/07/27 02:37:52;;;;;;;0.83;0.77;;;13.80;99.90;;;;;;5050453;28;20413;-64
2022/07/27 02:40:18;;;;;;;1.80;1.10;;;13.70;99.90;;;;;;5050805;28;20163;-64
2022/07/27 02:42:45;;;;;;;3.67;0.87;;;13.70;99.90;;;;;;5050543;28;20534;-64
2022/07/27 02:45:10;;;;;;;3.10;1.10;;;13.70;99.90;;;;;;5050202;28;20163;-64
2022/07/27 02:47:38;;;;;;;1.53;0.90;;;13.70;99.90;;;;;;5050259;28;20439;-64
2022/07/27 02:50:05;;;;;;;1.33;1.23;;;13.60;99.90;;;;;;5053939;28;20185;-64
2022/07/27 02:52:31;;;;;;;1.50;1.37;;;13.60;99.90;;;;;;5054702;28;20941;-64
2022/07/27 02:54:56;;;;;;;1.07;0.97;;;13.60;99.90;;;;;;5054218;28;20413;-64
2022/07/27 02:57:22;;;;;;;2.00;1.00;;;13.60;99.90;;;;;;5054624;28;20193;-63
2022/07/27 02:59:47;;;;;;;2.53;1.20;;;13.50;99.90;;;;;;5055139;28;20163;-63
2022/07/27 03:02:13;;;;;;;2.30;1.47;;;13.60;99.90;;;;;;5054730;28;20275;-65
2022/07/27 03:04:38;;;;;;;1.80;1.57;;;13.50;99.90;;;;;;5054164;28;20163;-64
2022/07/27 03:07:04;;;;;;;2.40;1.00;;;13.60;99.90;;;;;;5053370;28;20186;-64
2022/07/27 03:09:29;;;;;;;2.10;1.23;;;13.60;99.90;;;;;;5055599;28;20167;-64
2022/07/27 03:11:55;;;;;;;1.20;1.10;;;13.60;99.90;;;;;;5054521;28;20716;-64
2022/07/27 03:14:21;;;;;;;0.90;0.80;;;13.50;99.90;;;;;;5053877;28;20207;-64
2022/07/27 03:16:46;;;;;;;2.77;0.97;;;13.60;99.90;;;;;;5053579;28;20191;-64
2022/07/27 03:19:12;;;;;;;1.80;1.43;;;13.50;99.90;;;;;;5053820;28;20197;-64
2022/07/27 03:21:37;;;;;;;1.73;1.47;;;13.50;99.90;;;;;;5053641;28;20233;-64
2022/07/27 03:24:03;;;;;;;1.73;1.00;;;13.50;99.90;;;;;;5053869;28;20182;-64
2022/07/27 03:26:29;;;;;;;1.67;1.00;;;13.50;99.90;;;;;;5053218;28;20236;-64
2022/07/27 03:28:56;;;;;;;2.23;1.40;;;13.40;99.90;;;;;;5053653;28;20263;-64
2022/07/27 03:31:22;;;;;;;1.10;1.00;;;13.40;99.90;;;;;;5053407;28;20954;-64
2022/07/27 03:33:47;;;;;;;1.90;0.93;;;13.50;99.90;;;;;;5053305;28;20469;-64
2022/07/27 03:36:13;;;;;;;1.40;0.90;;;13.50;99.90;;;;;;5053135;28;20170;-64
2022/07/27 03:38:38;;;;;;;2.40;1.37;;;13.50;99.90;;;;;;5053716;28;20169;-65
2022/07/27 03:41:05;;;;;;;2.03;1.43;;;13.50;99.90;;;;;;5053245;28;20170;-64
2022/07/27 03:43:31;;;;;;;2.30;1.63;;;13.50;99.90;;;;;;5053389;28;20199;-64
2022/07/27 03:45:57;;;;;;;1.83;1.40;;;13.60;99.90;;;;;;5053049;28;20984;-64
2022/07/27 03:48:22;;;;;;;3.00;1.30;;;13.50;99.90;;;;;;5053464;28;20428;-64
2022/07/27 03:50:48;;;;;;;2.77;1.50;;;13.50;99.90;;;;;;5053534;28;20217;-63
2022/07/27 03:53:13;;;;;;;1.87;1.10;;;13.50;99.90;;;;;;5053238;28;20493;-65
2022/07/27 03:55:39;;;;;;;2.40;0.90;;;13.60;99.90;;;;;;5052961;28;20167;-64
2022/07/27 03:58:05;;;;;;;1.43;1.10;;;13.50;99.90;;;;;;5053142;28;20255;-64
2022/07/27 04:00:30;;;;;;;1.20;1.10;;;13.50;99.90;;;;;;5053066;28;20246;-64
2022/07/27 04:02:56;;;;;;;1.43;1.10;;;13.60;99.90;;;;;;5053037;28;20194;-65
2022/07/27 04:05:21;;;;;;;3.73;1.17;;;13.60;99.90;;;;;;5052559;28;20171;-64
2022/07/27 04:07:47;;;;;;;2.23;0.87;;;13.60;99.90;;;;;;5052960;28;20171;-64
2022/07/27 04:10:12;;;;;;;1.30;0.90;;;13.60;99.90;;;;;;5052883;28;20178;-64
2022/07/27 04:12:38;;;;;;;2.90;1.73;;;13.60;99.90;;;;;;5052470;28;20291;-64
2022/07/27 04:15:05;;;;;;;4.43;1.40;;;13.60;99.90;;;;;;5052521;28;20178;-64
2022/07/27 04:17:31;;;;;;;2.17;1.27;;;13.60;99.90;;;;;;5052456;28;20553;-64
2022/07/27 04:19:57;;;;;;;1.30;1.17;;;13.70;99.90;;;;;;5052760;28;20504;-64
2022/07/27 04:22:22;;;;;;;1.33;0.80;;;13.60;99.90;;;;;;5053635;28;20865;-65
2022/07/27 04:24:48;;;;;;;1.30;1.20;;;13.60;99.90;;;;;;5052056;28;20174;-65
2022/07/27 04:27:13;;;;;;;0.80;0.80;;;13.50;99.90;;;;;;5052535;28;20201;-64
2022/07/27 04:29:39;;;;;;;1.33;1.23;;;13.50;99.90;;;;;;5052514;28;20170;-64
2022/07/27 04:32:05;;;;;;;3.90;0.93;;;13.60;99.90;;;;;;5052358;28;20187;-64
2022/07/27 04:34:30;;;;;;;1.40;1.10;;;13.60;99.90;;;;;;5052035;28;20665;-65
2022/07/27 04:36:56;;;;;;;1.47;1.13;;;13.60;99.90;;;;;;5052263;28;20414;-64
2022/07/27 04:39:21;;;;;;;1.37;1.10;;;13.60;99.90;;;;;;5052227;28;20179;-64
2022/07/27 04:41:47;;;;;;;1.07;0.97;;;13.60;99.90;;;;;;5052262;28;20194;-64
2022/07/27 04:44:12;;;;;;;1.83;1.20;;;13.70;99.90;;;;;;5052152;28;20195;-64
2022/07/27 04:46:38;;;;;;;1.97;1.03;;;13.70;99.90;;;;;;5034034;28;20606;-64
2022/07/27 04:49:03;;;;;;;2.93;1.70;;;13.80;99.90;;;;;;5051931;28;20600;-64
2022/07/27 04:51:29;;;;;;;1.87;1.33;;;13.90;99.90;;;;;;5052056;28;20182;-64
2022/07/27 04:53:54;;;;;;;2.40;1.17;;;13.90;99.90;;;;;;5051971;28;20233;-64
2022/07/27 04:56:20;;;;;;;1.30;1.20;;;14.10;99.90;;;;;;5051759;28;20167;-64
2022/07/27 04:58:46;;;;;;;4.93;1.27;;;14.10;99.90;;;;;;5052144;28;20167;-64
2022/07/27 05:01:12;;;;;;;5.73;1.60;;;14.20;99.90;;;;;;5051889;28;20659;-64
2022/07/27 05:03:39;;;;;;;1.10;1.00;;;14.30;99.90;;;;;;5051702;28;20441;-63
2022/07/27 05:06:05;;;;;;;4.30;1.20;;;14.20;99.90;;;;;;5051576;28;20304;-64
2022/07/27 05:08:31;;;;;;;1.00;0.93;;;14.50;99.90;;;;;;5051766;28;20405;-64
2022/07/27 05:10:56;;;;;;;4.00;1.50;;;15.10;99.90;;;;;;5051358;28;20812;-64
2022/07/27 05:13:22;;;;;;;1.40;1.10;;;15.30;99.90;;;;;;5051388;28;20217;-64
2022/07/27 05:15:47;;;;;;;1.47;1.13;;;16.10;99.90;;;;;;5051545;28;20178;-63
2022/07/27 05:18:13;;;;;;;1.90;1.40;;;16.60;99.90;;;;;;5051460;28;20189;-63
2022/07/27 05:20:38;;;;;;;2.17;1.20;;;16.70;99.90;;;;;;5051614;28;20618;-64
2022/07/27 05:23:04;;;;;;;2.43;0.93;;;16.80;99.90;;;;;;5051583;28;20204;-63
2022/07/27 05:25:30;;;;;;;1.93;0.90;;;16.70;99.90;;;;;;5051266;28;20173;-63
2022/07/27 05:27:55;;;;;;;3.33;1.00;;;16.50;99.90;;;;;;5051474;28;20195;-64
2022/07/27 05:30:22;;;;;;;1.40;1.03;;;16.20;99.90;;;;;;5051480;28;20220;-64
2022/07/27 05:32:48;;;;;;;2.50;1.10;;;16.20;99.90;;;;;;5050969;28;20214;-64
2022/07/27 05:35:13;;;;;;;0.70;0.63;;;16.00;99.90;;;;;;5051209;28;20405;-63
2022/07/27 05:37:39;;;;;;;3.13;1.00;;;16.00;99.90;;;;;;5051172;28;20202;-64
2022/07/27 05:40:06;;;;;;;6.10;1.00;;;15.80;99.90;;;;;;5051533;28;20165;-64
2022/07/27 05:42:32;;;;;;;2.27;1.20;;;16.40;99.90;;;;;;5051173;28;20580;-65
2022/07/27 05:44:58;;;;;;;2.70;1.10;;;16.50;99.90;;;;;;5051014;28;20405;-64
2022/07/27 05:47:23;;;;;;;3.63;1.07;;;16.50;99.90;;;;;;5051251;28;20253;-63
2022/07/27 05:49:49;;;;;;;1.40;0.80;;;16.70;99.90;;;;;;5051318;28;20225;-64
2022/07/27 05:52:15;;;;;;;1.93;0.83;;;17.10;99.90;;;;;;5051136;28;20198;-64
2022/07/27 05:54:42;;;;;;;1.93;0.90;;;18.10;99.90;;;;;;5050795;28;20739;-64
2022/07/27 05:57:07;;;;;;;1.77;1.67;;;18.00;99.90;;;;;;5051048;28;20449;-64
2022/07/27 05:59:34;;;;;;;3.87;0.97;;;18.30;99.90;;;;;;5051173;28;20485;-63
2022/07/27 06:02:00;;;;;;;4.33;1.00;;;18.10;99.90;;;;;;5050786;28;20213;-64
2022/07/27 06:04:25;;;;;;;2.03;0.90;;;18.30;99.90;;;;;;5050922;28;20426;-64
2022/07/27 06:09:36;;;;;;;4.03;0.90;;;19.00;99.90;;;;;;5051329;28;20562;-64
2022/07/27 06:12:02;;;;;;;3.00;1.00;;;19.50;99.90;;;;;;5050698;28;20457;-64
2022/07/27 06:14:27;;;;;;;1.00;0.80;;;19.40;99.90;;;;;;5050709;28;20453;-64
2022/07/27 06:16:53;;;;;;;3.70;0.90;;;18.50;99.90;;;;;;5050499;28;20169;-64
2022/07/27 06:19:19;;;;;;;1.97;1.00;;;18.50;99.90;;;;;;5050970;28;20534;-64
2022/07/27 06:21:44;;;;;;;2.57;0.80;;;19.50;99.90;;;;;;5050564;28;20288;-64
2022/07/27 06:24:10;;;;;;;1.37;0.90;;;19.90;99.90;;;;;;5052739;28;20244;-64
2022/07/27 06:26:36;;;;;;;1.20;1.10;;;21.10;99.90;;;;;;5054588;28;20246;-65
2022/07/27 06:29:03;;;;;;;4.73;0.80;;;20.80;99.90;;;;;;5054755;28;20256;-64
2022/07/27 06:31:29;;;;;;;1.40;0.77;;;20.30;99.90;;;;;;5054721;28;20507;-64
2022/07/27 06:33:55;;;;;;;4.90;1.20;;;20.60;99.90;;;;;;5054604;28;20897;-64
2022/07/27 06:36:21;;;;;;;2.70;1.17;;;20.90;99.90;;;;;;5054441;28;20427;-65
2022/07/27 06:38:47;;;;;;;1.67;0.90;;;20.70;99.90;;;;;;5054752;28;20412;-64
2022/07/27 06:41:13;;;;;;;3.63;0.90;;;20.00;99.90;;;;;;5054476;28;20177;-64
2022/07/27 06:43:38;;;;;;;2.20;1.00;;;20.00;99.90;;;;;;5054441;28;20421;-65
2022/07/27 06:46:06;;;;;;;2.67;1.00;;;20.10;99.90;;;;;;5054374;28;20551;-65
2022/07/27 06:48:32;;;;;;;2.60;1.00;;;20.20;99.90;;;;;;5054327;28;20191;-65
2022/07/27 06:50:59;;;;;;;2.20;1.00;;;20.30;99.90;;;;;;5054620;28;20463;-65
2022/07/27 06:53:25;;;;;;;3.20;1.00;;;19.50;99.90;;;;;;5054577;28;20471;-64
2022/07/27 06:55:51;;;;;;;2.73;1.20;;;19.40;99.90;;;;;;5054088;28;20429;-64
2022/07/27 06:58:17;;;;;;;2.30;1.20;;;19.10;99.90;;;;;;5054568;28;20453;-63
2022/07/27 07:00:43;;;;;;;3.90;1.10;;;19.30;99.90;;;;;;5054234;28;20461;-65
2022/07/27 07:03:10;;;;;;;3.80;1.27;;;19.10;99.90;;;;;;5053972;28;20456;-65
2022/07/27 07:05:41;;;;;;;2.70;1.13;;;19.90;99.90;;;;;;5054017;28;20195;-65
2022/07/27 07:08:13;;;;;;;1.97;0.90;;;20.40;99.90;;;;;;5054227;28;20430;-65
2022/07/27 07:10:40;;;;;;;1.20;1.10;;;19.50;99.90;;;;;;5054080;28;20409;-65
2022/07/27 07:13:06;;;;;;;2.00;1.13;;;20.00;99.90;;;;;;5042429;23;20509;-73
2022/07/27 07:15:36;;;;;;;3.40;1.00;;;20.00;99.90;;;;;;5014720;28;20409;-73
2022/07/27 07:18:03;;;;;;;4.70;1.87;;;20.50;99.90;;;;;;5013169;28;20501;-74
2022/07/27 07:20:29;;;;;;;4.13;1.30;;;20.00;99.90;;;;;;5015028;28;20407;-73
2022/07/27 07:22:55;;;;;;;2.00;1.03;;;20.20;99.90;;;;;;5014810;28;20604;-73
2022/07/27 07:25:21;;;;;;;1.63;1.00;;;19.70;99.90;;;;;;5014386;28;20421;-72
2022/07/27 07:27:47;;;;;;;1.50;1.40;;;19.70;99.90;;;;;;5014623;28;20916;-73
2022/07/27 07:30:13;;;;;;;1.00;0.80;;;20.00;99.90;;;;;;5014982;28;20175;-77
2022/07/27 07:32:38;;;;;;;2.10;1.30;;;20.50;99.90;;;;;;5014582;28;20219;-74
2022/07/27 07:35:05;;;;;;;1.30;1.10;;;20.40;99.90;;;;;;5013850;28;20779;-75
2022/07/27 07:37:31;;;;;;;3.73;1.90;;;20.60;99.90;;;;;;5015479;28;20168;-75
2022/07/27 07:39:57;;;;;;;1.50;0.93;;;20.90;99.90;;;;;;5014437;28;20498;-73
2022/07/27 07:42:22;;;;;;;3.27;1.10;;;21.20;99.90;;;;;;5014527;28;20451;-73
2022/07/27 07:44:48;;;;;;;3.03;1.30;;;20.70;99.90;;;;;;5014401;28;20426;-73
2022/07/27 07:47:13;;;;;;;2.20;1.40;;;20.50;99.90;;;;;;5011551;28;20180;-72
2022/07/27 07:49:39;;;;;;;2.03;0.90;;;20.90;99.90;;;;;;5014277;28;20246;-75
2022/07/27 07:52:05;;;;;;;4.90;2.13;;;20.60;99.90;;;;;;5013846;28;20438;-74
2022/07/27 07:54:30;;;;;;;1.57;1.00;;;20.00;99.90;;;;;;5013742;28;20197;-74
2022/07/27 07:56:56;;;;;;;6.43;4.33;;;20.30;99.90;;;;;;5013090;28;20498;-75
2022/07/27 07:59:21;;;;;;;2.40;1.33;;;19.90;99.90;;;;;;5014247;28;20185;-73
2022/07/27 08:01:47;;;;;;;1.63;0.90;;;19.90;99.90;;;;;;5014365;28;20294;-74
2022/07/27 08:04:13;;;;;;;4.33;2.07;;;20.60;99.60;;;;;;5015075;28;20188;-73
2022/07/27 08:06:39;;;;;;;1.00;0.80;;;20.30;99.80;;;;;;5024914;28;20179;-75
2022/07/27 08:09:05;;;;;;;1.60;0.80;;;19.90;99.90;;;;;;5017331;28;20192;-74
2022/07/27 08:11:31;;;;;;;2.57;1.70;;;20.10;99.80;;;;;;5015397;28;20169;-74
2022/07/27 08:13:56;;;;;;;1.40;1.17;;;20.10;99.90;;;;;;5013848;28;20470;-74
2022/07/27 08:16:22;;;;;;;2.60;1.00;;;19.70;99.90;;;;;;5013506;28;20179;-73
2022/07/27 08:18:47;;;;;;;4.27;2.13;;;19.20;99.90;;;;;;5013945;28;20271;-74
2022/07/27 08:21:13;;;;;;;2.13;1.83;;;18.90;99.90;;;;;;5014116;28;20624;-74
2022/07/27 08:23:39;;;;;;;1.20;0.83;;;19.10;99.90;;;;;;5013769;28;20270;-75
2022/07/27 08:26:04;;;;;;;1.50;1.37;;;19.10;99.90;;;;;;5013629;28;20538;-74
2022/07/27 08:28:30;;;;;;;2.17;1.43;;;19.50;99.40;;;;;;5014110;28;20202;-74
2022/07/27 08:30:55;;;;;;;5.70;4.33;;;19.80;97.70;;;;;;5014001;28;20267;-74
2022/07/27 08:33:21;;;;;;;2.67;1.50;;;19.90;97.80;;;;;;5013462;28;20276;-73
2022/07/27 08:35:46;;;;;;;5.03;1.13;;;19.80;98.30;;;;;;5013297;28;20180;-74
2022/07/27 08:38:12;;;;;;;5.97;2.90;;;19.10;98.50;;;;;;5013660;28;20174;-74
2022/07/27 08:40:39;;;;;;;13.57;9.83;;;19.50;99.40;;;;;;5013710;28;20218;-74
2022/07/27 08:43:05;;;;;;;6.07;4.30;;;20.20;98.40;;;;;;5013470;28;20452;-74
2022/07/27 08:45:32;;;;;;;2.03;0.97;;;20.50;97.10;;;;;;5013269;28;20414;-74
2022/07/27 08:47:58;;;;;;;3.37;1.40;;;19.20;97.30;;;;;;5017357;28;20416;-74
2022/07/27 08:50:24;;;;;;;2.77;2.17;;;19.10;97.70;;;;;;5032492;28;20415;-73
2022/07/27 08:52:52;;;;;;;2.90;0.93;;;18.90;98.90;;;;;;5012977;28;20438;-74
2022/07/27 08:55:18;;;;;;;2.37;1.23;;;18.80;99.20;;;;;;5013101;28;20493;-73
2022/07/27 08:57:44;;;;;;;1.30;0.80;;;18.70;99.90;;;;;;5013525;28;20447;-74
2022/07/27 09:00:11;;;;;;;3.00;1.37;;;18.90;99.80;;;;;;5013148;28;20406;-74
2022/07/27 09:02:39;;;;;;;2.33;1.40;;;18.60;99.90;;;;;;5013199;28;20271;-74
2022/07/27 09:05:05;;;;;;;11.27;8.13;;;18.60;99.90;;;;;;5012988;28;20417;-74
2022/07/27 09:07:31;;;;;;;15.30;11.53;;;20.00;99.60;;;;;;5013104;28;20439;-74
2022/07/27 09:09:57;;;;;;;4.23;3.83;;;20.80;98.80;;;;;;5013064;28;20887;-74
2022/07/27 09:12:27;;;;;;;6.37;4.23;;;20.40;98.50;;;;;;5012812;28;20273;-73
2022/07/27 09:15:04;;;;;;;2.30;1.93;;;21.40;98.70;;;;;;5012742;28;20205;-73
2022/07/27 09:17:30;;;;;;;1.77;1.00;;;22.70;95.30;;;;;;5013179;28;20444;-74
2022/07/27 09:19:59;;;;;;;3.17;1.20;;;20.90;94.90;;;;;;5012800;28;20846;-76
2022/07/27 09:22:41;;;;;;;3.63;1.20;;;20.20;97.30;;;;;;5013283;28;20669;-74
2022/07/27 09:25:12;;;;;;;1.23;0.80;;;20.10;97.90;;;;;;5012594;28;20411;-74
2022/07/27 09:27:38;;;;;;;1.20;1.10;;;20.30;97.10;;;;;;5013691;28;20500;-75
2022/07/27 09:30:16;;;;;;;2.90;1.07;;;20.00;98.40;;;;;;5013208;28;20441;-73
2022/07/27 09:33:14;;;;;;;2.00;1.03;;;19.60;99.00;;;;;;5013074;28;20205;-75
2022/07/27 09:35:40;;;;;;;3.43;0.73;;;20.00;99.50;;;;;;4990175;28;20425;-75
2022/07/27 09:38:23;;;;;;;1.73;0.80;;;20.00;99.90;;;;;;5013026;28;20404;-75
2022/07/27 09:41:02;;;;;;;2.83;0.80;;;19.50;99.50;;;;;;5013543;28;20178;-75
2022/07/27 09:43:28;;;;;;;2.27;1.27;;;19.60;98.70;;;;;;5013493;28;20437;-74
2022/07/27 09:45:54;;;;;;;1.30;1.00;;;19.90;97.40;;;;;;5017091;28;20531;-74
2022/07/27 09:48:22;;;;;;;1.53;1.20;;;19.70;97.60;;;;;;5019721;28;20181;-73
2022/07/27 09:50:57;;;;;;;1.80;1.70;;;19.50;97.00;;;;;;5018310;28;20426;-75
2022/07/27 09:53:23;;;;;;;3.80;2.30;;;20.00;96.50;;;;;;5016860;28;21017;-74
2022/07/27 09:56:01;;;;;;;5.90;1.07;;;20.30;95.90;;;;;;5016657;28;20930;-74
2022/07/27 09:58:47;;;;;;;1.57;0.70;;;20.30;96.60;;;;;;5017547;28;20814;-74
2022/07/27 10:01:22;;;;;;;2.20;1.77;;;20.50;96.30;;;;;;5019148;28;20405;-74
2022/07/27 10:03:50;;;;;;;2.30;1.53;;;20.80;96.40;;;;;;5020313;28;20437;-73
2022/07/27 10:06:16;;;;;;;3.03;2.10;;;21.40;95.20;;;;;;5014653;28;20446;-75
2022/07/27 10:08:44;;;;;;;2.40;1.10;;;20.60;95.80;;;;;;5014246;28;20410;-76
2022/07/27 10:11:11;;;;;;;2.37;1.80;;;21.20;94.60;;;;;;5013327;28;20178;-73
2022/07/27 10:13:37;;;;;;;1.63;1.10;;;21.40;94.40;;;;;;5010964;28;20477;-74
2022/07/27 10:16:04;;;;;;;1.87;1.20;;;20.70;95.60;;;;;;5011824;28;20496;-74
2022/07/27 10:18:44;;;;;;;3.93;1.43;;;20.80;94.90;;;;;;5011943;28;20423;-74
2022/07/27 10:21:10;;;;;;;5.93;2.23;;;20.30;95.60;;;;;;5012724;28;20407;-75
2022/07/27 10:23:37;;;;;;;4.30;3.00;;;20.50;95.30;;;;;;5012481;28;20936;-73
2022/07/27 10:26:20;;;;;;;2.60;2.33;;;20.80;95.20;;;;;;5011967;28;20419;-74
2022/07/27 10:28:54;;;;;;;4.87;3.00;;;21.10;95.30;;;;;;5012667;28;20796;-74
2022/07/27 10:31:26;;;;;;;2.20;1.97;;;22.10;94.60;;;;;;5012438;28;20426;-74
2022/07/27 10:33:55;;;;;;;2.43;2.20;;;21.80;94.10;;;;;;5003685;28;20461;-74
2022/07/27 10:36:30;;;;;;;1.60;1.00;;;21.60;94.90;;;;;;5011988;28;20410;-75
2022/07/27 10:38:58;;;;;;;2.33;1.70;;;21.10;95.20;;;;;;5012048;28;20405;-74
2022/07/27 10:41:28;;;;;;;3.20;1.03;;;21.40;95.30;;;;;;5010757;28;20469;-75
2022/07/27 10:44:17;;;;;;;1.80;0.90;;;21.60;95.80;;;;;;5011919;28;20445;-74
2022/07/27 10:46:53;;;;;;;1.33;0.77;;;20.80;95.80;;;;;;5011824;28;20422;-74
2022/07/27 10:49:20;;;;;;;3.53;1.13;;;21.70;95.00;;;;;;5011738;28;20946;-74
2022/07/27 10:51:46;;;;;;;2.60;1.77;;;21.40;94.70;;;;;;5011970;28;20434;-74
2022/07/27 10:54:35;;;;;;;1.30;1.00;;;21.60;95.60;;;;;;5011806;28;20462;-75
2022/07/27 10:57:02;;;;;;;2.50;1.10;;;20.80;95.00;;;;;;4992724;28;20601;-74
2022/07/27 10:59:42;;;;;;;4.50;1.33;;;20.30;95.50;;;;;;4992554;28;20923;-74
2022/07/27 11:02:13;;;;;;;2.03;1.00;;;20.60;95.40;;;;;;4992666;28;20425;-74
2022/07/27 11:04:53;;;;;;;1.50;0.80;;;20.20;95.40;;;;;;4992535;28;20419;-72
2022/07/27 11:07:22;;;;;;;2.30;1.10;;;20.00;95.80;;;;;;5003068;28;20411;-74
2022/07/27 11:09:51;;;;;;;23.40;17.40;;;20.00;96.20;;;;;;5013169;28;20449;-74
2022/07/27 11:12:17;;;;;;;11.33;6.63;;;20.10;96.60;;;;;;5015257;28;20976;-75
2022/07/27 11:14:47;;;;;;;2.40;1.90;;;20.90;95.40;;;;;;5015337;28;20496;-73
2022/07/27 11:17:14;;;;;;;1.90;1.63;;;20.80;95.50;;;;;;5015750;28;20445;-73
2022/07/27 11:19:40;;;;;;;1.10;1.00;;;21.20;95.60;;;;;;5015621;28;20447;-75
2022/07/27 11:22:05;;;;;;;2.13;1.20;;;20.70;95.40;;;;;;5016012;28;20450;-73
2022/07/27 11:24:32;;;;;;;1.93;0.90;;;20.90;95.60;;;;;;5017465;28;20417;-75
2022/07/27 11:26:58;;;;;;;2.67;0.93;;;21.30;94.60;;;;;;5017895;28;20190;-74
2022/07/27 11:29:24;;;;;;;1.90;1.00;;;21.60;94.40;;;;;;5015826;28;20416;-73
2022/07/27 11:31:53;;;;;;;2.30;1.67;;;20.90;95.20;;;;;;5015603;28;20185;-73
2022/07/27 11:34:35;;;;;;;1.40;1.10;;;21.40;94.50;;;;;;5015202;28;20448;-73
2022/07/27 11:37:11;;;;;;;3.70;0.97;;;21.40;93.80;;;;;;5015595;28;20488;-74
2022/07/27 11:39:36;;;;;;;2.90;1.17;;;20.30;93.40;;;;;;5019206;28;20409;-74
2022/07/27 11:42:02;;;;;;;4.60;1.33;;;20.50;94.90;;;;;;5019550;28;20438;-73
2022/07/27 11:44:29;;;;;;;2.43;1.73;;;20.40;95.40;;;;;;5015130;28;20178;-74
2022/07/27 11:46:56;;;;;;;1.43;1.20;;;21.00;95.30;;;;;;5014784;28;20420;-74
2022/07/27 11:49:27;;;;;;;6.13;1.33;;;20.70;95.10;;;;;;5014855;28;20466;-74
2022/07/27 11:51:58;;;;;;;2.90;1.00;;;21.00;95.00;;;;;;5014814;28;20459;-74
2022/07/27 11:54:25;;;;;;;3.13;1.50;;;20.70;95.10;;;;;;5014585;28;20455;-74
2022/07/27 11:56:57;;;;;;;4.63;1.17;;;21.20;93.30;;;;;;5014390;28;20408;-73
2022/07/27 11:59:25;;;;;;;6.03;1.70;;;21.20;93.90;;;;;;5014607;28;20407;-73
2022/07/27 12:02:13;;;;;;;2.30;1.10;;;21.30;93.10;;;;;;5014291;28;20847;-74
2022/07/27 12:04:41;;;;;;;1.17;0.77;;;21.40;92.30;;;;;;5014314;28;20453;-73
2022/07/27 12:07:13;;;;;;;2.20;1.30;;;20.70;92.70;;;;;;5014574;28;20413;-74
2022/07/27 12:09:44;;;;;;;6.03;2.47;;;20.90;93.00;;;;;;5014296;28;20411;-75
2022/07/27 12:12:09;;;;;;;3.20;1.87;;;21.40;93.20;;;;;;5014201;28;20819;-74
2022/07/27 12:14:41;;;;;;;1.23;0.87;;;21.40;93.20;;;;;;5014122;28;20455;-74
2022/07/27 12:17:17;;;;;;;2.50;1.23;;;21.40;92.40;;;;;;5014296;28;20165;-72
2022/07/27 12:19:58;;;;;;;1.80;1.43;;;21.50;92.60;;;;;;5014538;28;20400;-73
2022/07/27 12:22:39;;;;;;;3.70;1.10;;;21.60;91.80;;;;;;5013258;28;20762;-74
2022/07/27 12:25:28;;;;;;;2.27;0.73;;;22.00;91.50;;;;;;5013943;28;20492;-73
2022/07/27 12:27:55;;;;;;;2.30;0.80;;;21.90;90.70;;;;;;5003834;28;20422;-74
2022/07/27 12:30:41;;;;;;;1.90;0.90;;;22.00;90.90;;;;;;5013927;28;20419;-74
2022/07/27 12:33:25;;;;;;;3.37;1.10;;;21.80;91.30;;;;;;5000183;28;20456;-73
2022/07/27 12:35:50;;;;;;;1.87;1.20;;;21.70;92.20;;;;;;4994058;28;20433;-74
2022/07/27 12:38:17;;;;;;;2.10;0.90;;;22.00;91.40;;;;;;5002206;28;20401;-73
2022/07/27 12:40:44;;;;;;;1.77;1.00;;;21.90;91.10;;;;;;5013761;28;20173;-74
2022/07/27 12:43:16;;;;;;;0.80;0.77;;;21.70;90.80;;;;;;5012317;28;20523;-73
2022/07/27 12:45:41;;;;;;;2.30;0.90;;;21.60;91.00;;;;;;5013073;28;20413;-74
2022/07/27 12:48:15;;;;;;;1.20;0.77;;;21.50;91.50;;;;;;5012735;28;20413;-73
2022/07/27 12:50:42;;;;;;;2.57;0.73;;;21.70;91.90;;;;;;5029501;28;20177;-73
2022/07/27 12:53:09;;;;;;;3.33;0.97;;;22.40;91.00;;;;;;5032933;28;20454;-75
2022/07/27 12:55:35;;;;;;;2.10;1.30;;;22.30;88.90;;;;;;5017741;28;20464;-74